Paseos Reales, Puerto Rico
Current Conditions -  °F | °C
As of 5:50 PM on Sunday 23 Nov 2014 (Local Time) from TJBQ Reporting Station
Scattered Clouds Scattered Clouds  
Wind Chill: 81°   Ceiling: Unl
Heat Index: 85°   Visibility: 10mi
Dew Point: 72°   Wind: 17mph
Humidity: 74%   Direction: 100°E
Pressure: 29.98"   Gusts: 23mph
Location:  18.4943°N, 67.0987°W
Report Text: TJBQ 232150Z 10015G20KT 10SM SCT020 27/22 A2998 RMK RWY 08 ATIS P
Loading
Personal Weather Stations






























Interactive Weather Map New forecast layout! Learn more

10-Day Weather Forecast

Advertisements
Track Severe Weather on mobile